sensor_id;sensor_type;location;lat;lon;timestamp;P1;durP1;ratioP1;P2;durP2;ratioP2
3359;SDS011;1693;49.602;11.046;2024-01-27T00:00:22;1.90;;;1.40;;
3359;SDS011;1693;49.602;11.046;2024-01-27T00:02:49;1.23;;;1.03;;
3359;SDS011;1693;49.602;11.046;2024-01-27T00:05:17;2.33;;;1.60;;
3359;SDS011;1693;49.602;11.046;2024-01-27T00:07:44;3.40;;;1.40;;
3359;SDS011;1693;49.602;11.046;2024-01-27T00:10:11;1.70;;;1.30;;
3359;SDS011;1693;49.602;11.046;2024-01-27T00:12:39;1.40;;;1.17;;
3359;SDS011;1693;49.602;11.046;2024-01-27T00:15:06;3.87;;;1.50;;
3359;SDS011;1693;49.602;11.046;2024-01-27T00:17:35;1.20;;;0.90;;
3359;SDS011;1693;49.602;11.046;2024-01-27T00:20:02;2.80;;;1.37;;
3359;SDS011;1693;49.602;11.046;2024-01-27T00:22:30;1.73;;;1.20;;
3359;SDS011;1693;49.602;11.046;2024-01-27T00:24:58;2.70;;;1.57;;
3359;SDS011;1693;49.602;11.046;2024-01-27T00:27:25;4.57;;;1.40;;
3359;SDS011;1693;49.602;11.046;2024-01-27T00:29:52;2.73;;;1.40;;
3359;SDS011;1693;49.602;11.046;2024-01-27T00:32:19;1.43;;;1.17;;
3359;SDS011;1693;49.602;11.046;2024-01-27T00:34:45;1.30;;;1.00;;
3359;SDS011;1693;49.602;11.046;2024-01-27T00:37:13;1.67;;;1.10;;
3359;SDS011;1693;49.602;11.046;2024-01-27T00:39:41;2.00;;;1.67;;
3359;SDS011;1693;49.602;11.046;2024-01-27T00:42:08;2.03;;;1.77;;
3359;SDS011;1693;49.602;11.046;2024-01-27T00:44:36;8.73;;;1.30;;
3359;SDS011;1693;49.602;11.046;2024-01-27T00:47:03;6.10;;;1.10;;
3359;SDS011;1693;49.602;11.046;2024-01-27T00:49:30;1.40;;;1.00;;
3359;SDS011;1693;49.602;11.046;2024-01-27T00:51:57;1.40;;;1.30;;
3359;SDS011;1693;49.602;11.046;2024-01-27T00:54:25;3.87;;;2.43;;
3359;SDS011;1693;49.602;11.046;2024-01-27T00:56:53;6.30;;;1.60;;
3359;SDS011;1693;49.602;11.046;2024-01-27T00:59:20;1.60;;;1.30;;
3359;SDS011;1693;49.602;11.046;2024-01-27T01:01:48;2.23;;;1.60;;
3359;SDS011;1693;49.602;11.046;2024-01-27T01:04:15;3.77;;;1.50;;
3359;SDS011;1693;49.602;11.046;2024-01-27T01:06:42;4.33;;;3.30;;
3359;SDS011;1693;49.602;11.046;2024-01-27T01:09:09;2.37;;;1.87;;
3359;SDS011;1693;49.602;11.046;2024-01-27T01:11:36;1.60;;;1.37;;
3359;SDS011;1693;49.602;11.046;2024-01-27T01:14:05;2.50;;;1.13;;
3359;SDS011;1693;49.602;11.046;2024-01-27T01:16:32;2.27;;;1.33;;
3359;SDS011;1693;49.602;11.046;2024-01-27T01:18:59;1.97;;;1.00;;
3359;SDS011;1693;49.602;11.046;2024-01-27T01:21:26;1.33;;;1.23;;
3359;SDS011;1693;49.602;11.046;2024-01-27T01:23:53;7.83;;;1.60;;
3359;SDS011;1693;49.602;11.046;2024-01-27T01:26:20;3.40;;;1.50;;
3359;SDS011;1693;49.602;11.046;2024-01-27T01:28:47;2.30;;;1.23;;
3359;SDS011;1693;49.602;11.046;2024-01-27T01:31:15;2.27;;;1.30;;
3359;SDS011;1693;49.602;11.046;2024-01-27T01:33:42;2.13;;;1.63;;
3359;SDS011;1693;49.602;11.046;2024-01-27T01:36:10;2.13;;;1.23;;
3359;SDS011;1693;49.602;11.046;2024-01-27T01:38:37;2.80;;;2.00;;
3359;SDS011;1693;49.602;11.046;2024-01-27T01:41:04;1.30;;;1.10;;
3359;SDS011;1693;49.602;11.046;2024-01-27T01:43:31;2.43;;;1.67;;
3359;SDS011;1693;49.602;11.046;2024-01-27T01:45:58;1.60;;;1.50;;
3359;SDS011;1693;49.602;11.046;2024-01-27T01:48:27;4.30;;;1.60;;
3359;SDS011;1693;49.602;11.046;2024-01-27T01:50:54;1.63;;;1.30;;
3359;SDS011;1693;49.602;11.046;2024-01-27T01:53:21;2.80;;;1.97;;
3359;SDS011;1693;49.602;11.046;2024-01-27T01:55:49;1.63;;;1.53;;
3359;SDS011;1693;49.602;11.046;2024-01-27T01:58:16;3.70;;;1.00;;
3359;SDS011;1693;49.602;11.046;2024-01-27T02:00:43;2.00;;;1.43;;
3359;SDS011;1693;49.602;11.046;2024-01-27T02:03:10;3.00;;;1.50;;
3359;SDS011;1693;49.602;11.046;2024-01-27T02:05:39;3.73;;;1.20;;
3359;SDS011;1693;49.602;11.046;2024-01-27T02:08:15;2.80;;;1.70;;
3359;SDS011;1693;49.602;11.046;2024-01-27T02:10:42;1.37;;;1.27;;
3359;SDS011;1693;49.602;11.046;2024-01-27T02:13:16;1.67;;;1.00;;
3359;SDS011;1693;49.602;11.046;2024-01-27T02:15:45;2.40;;;1.47;;
3359;SDS011;1693;49.602;11.046;2024-01-27T02:18:12;2.27;;;1.50;;
3359;SDS011;1693;49.602;11.046;2024-01-27T02:20:40;1.77;;;1.40;;
3359;SDS011;1693;49.602;11.046;2024-01-27T02:23:08;3.67;;;1.53;;
3359;SDS011;1693;49.602;11.046;2024-01-27T02:25:36;2.50;;;1.30;;
3359;SDS011;1693;49.602;11.046;2024-01-27T02:28:03;5.30;;;1.50;;
3359;SDS011;1693;49.602;11.046;2024-01-27T02:30:31;2.80;;;1.27;;
3359;SDS011;1693;49.602;11.046;2024-01-27T02:32:58;1.73;;;1.50;;
3359;SDS011;1693;49.602;11.046;2024-01-27T02:35:25;2.87;;;2.60;;
3359;SDS011;1693;49.602;11.046;2024-01-27T02:37:52;1.30;;;1.00;;
3359;SDS011;1693;49.602;11.046;2024-01-27T02:40:19;2.70;;;1.10;;
3359;SDS011;1693;49.602;11.046;2024-01-27T02:42:48;1.97;;;1.00;;
3359;SDS011;1693;49.602;11.046;2024-01-27T02:45:15;1.30;;;1.03;;
3359;SDS011;1693;49.602;11.046;2024-01-27T02:47:42;1.80;;;1.30;;
3359;SDS011;1693;49.602;11.046;2024-01-27T02:50:09;5.07;;;1.57;;
3359;SDS011;1693;49.602;11.046;2024-01-27T02:52:36;2.23;;;1.57;;
3359;SDS011;1693;49.602;11.046;2024-01-27T02:55:04;10.70;;;1.77;;
3359;SDS011;1693;49.602;11.046;2024-01-27T02:57:31;2.37;;;1.27;;
3359;SDS011;1693;49.602;11.046;2024-01-27T03:00:00;2.47;;;1.77;;
3359;SDS011;1693;49.602;11.046;2024-01-27T03:02:30;3.70;;;2.10;;
3359;SDS011;1693;49.602;11.046;2024-01-27T03:04:57;1.97;;;1.33;;
3359;SDS011;1693;49.602;11.046;2024-01-27T03:07:25;1.80;;;1.67;;
3359;SDS011;1693;49.602;11.046;2024-01-27T03:09:52;3.73;;;1.53;;
3359;SDS011;1693;49.602;11.046;2024-01-27T03:12:19;1.40;;;1.10;;
3359;SDS011;1693;49.602;11.046;2024-01-27T03:14:48;1.77;;;1.30;;
3359;SDS011;1693;49.602;11.046;2024-01-27T03:17:17;1.30;;;0.93;;
3359;SDS011;1693;49.602;11.046;2024-01-27T03:19:44;1.20;;;1.00;;
3359;SDS011;1693;49.602;11.046;2024-01-27T03:22:11;1.70;;;1.23;;
3359;SDS011;1693;49.602;11.046;2024-01-27T03:24:38;2.67;;;1.30;;
3359;SDS011;1693;49.602;11.046;2024-01-27T03:27:05;1.93;;;1.13;;
3359;SDS011;1693;49.602;11.046;2024-01-27T03:29:32;2.50;;;1.67;;
3359;SDS011;1693;49.602;11.046;2024-01-27T03:31:59;3.33;;;1.30;;
3359;SDS011;1693;49.602;11.046;2024-01-27T03:34:27;5.07;;;1.33;;
3359;SDS011;1693;49.602;11.046;2024-01-27T03:36:54;2.67;;;1.60;;
3359;SDS011;1693;49.602;11.046;2024-01-27T03:39:21;2.23;;;1.30;;
3359;SDS011;1693;49.602;11.046;2024-01-27T03:41:48;1.90;;;1.37;;
3359;SDS011;1693;49.602;11.046;2024-01-27T03:44:15;3.23;;;1.50;;
3359;SDS011;1693;49.602;11.046;2024-01-27T03:46:42;2.80;;;1.30;;
3359;SDS011;1693;49.602;11.046;2024-01-27T03:49:09;2.00;;;1.80;;
3359;SDS011;1693;49.602;11.046;2024-01-27T03:51:37;3.20;;;1.30;;
3359;SDS011;1693;49.602;11.046;2024-01-27T03:54:04;2.53;;;1.67;;
3359;SDS011;1693;49.602;11.046;2024-01-27T03:56:31;1.80;;;1.40;;
3359;SDS011;1693;49.602;11.046;2024-01-27T03:58:58;2.50;;;1.70;;
3359;SDS011;1693;49.602;11.046;2024-01-27T04:01:25;2.40;;;1.63;;
3359;SDS011;1693;49.602;11.046;2024-01-27T04:03:52;3.93;;;0.90;;
3359;SDS011;1693;49.602;11.046;2024-01-27T04:06:19;1.67;;;1.57;;
3359;SDS011;1693;49.602;11.046;2024-01-27T04:08:47;1.73;;;1.20;;
3359;SDS011;1693;49.602;11.046;2024-01-27T04:11:21;1.80;;;1.50;;
3359;SDS011;1693;49.602;11.046;2024-01-27T04:13:49;1.90;;;1.40;;
3359;SDS011;1693;49.602;11.046;2024-01-27T04:16:16;1.30;;;1.10;;
3359;SDS011;1693;49.602;11.046;2024-01-27T04:18:43;1.67;;;1.10;;
3359;SDS011;1693;49.602;11.046;2024-01-27T04:21:10;1.60;;;1.27;;
3359;SDS011;1693;49.602;11.046;2024-01-27T04:23:37;2.00;;;1.40;;
3359;SDS011;1693;49.602;11.046;2024-01-27T04:26:06;1.93;;;1.27;;
3359;SDS011;1693;49.602;11.046;2024-01-27T04:28:34;3.23;;;1.90;;
3359;SDS011;1693;49.602;11.046;2024-01-27T04:31:02;2.47;;;1.27;;
3359;SDS011;1693;49.602;11.046;2024-01-27T04:33:30;1.40;;;1.00;;
3359;SDS011;1693;49.602;11.046;2024-01-27T04:35:57;1.90;;;1.47;;
3359;SDS011;1693;49.602;11.046;2024-01-27T04:38:24;1.60;;;1.27;;
3359;SDS011;1693;49.602;11.046;2024-01-27T04:40:51;1.87;;;1.50;;
3359;SDS011;1693;49.602;11.046;2024-01-27T04:43:20;1.57;;;0.90;;
3359;SDS011;1693;49.602;11.046;2024-01-27T04:45:47;1.20;;;0.80;;
3359;SDS011;1693;49.602;11.046;2024-01-27T04:48:14;8.30;;;1.80;;
3359;SDS011;1693;49.602;11.046;2024-01-27T04:50:41;2.47;;;1.23;;
3359;SDS011;1693;49.602;11.046;2024-01-27T04:53:08;2.87;;;1.70;;
3359;SDS011;1693;49.602;11.046;2024-01-27T04:55:36;2.23;;;1.97;;
3359;SDS011;1693;49.602;11.046;2024-01-27T04:58:03;1.83;;;1.40;;
3359;SDS011;1693;49.602;11.046;2024-01-27T05:00:32;1.93;;;1.50;;
3359;SDS011;1693;49.602;11.046;2024-01-27T05:02:59;1.40;;;1.10;;
3359;SDS011;1693;49.602;11.046;2024-01-27T05:05:29;2.60;;;1.37;;
3359;SDS011;1693;49.602;11.046;2024-01-27T05:07:56;3.50;;;1.20;;
3359;SDS011;1693;49.602;11.046;2024-01-27T05:10:23;4.10;;;1.83;;
3359;SDS011;1693;49.602;11.046;2024-01-27T05:12:51;1.50;;;1.10;;
3359;SDS011;1693;49.602;11.046;2024-01-27T05:15:18;1.47;;;1.07;;
3359;SDS011;1693;49.602;11.046;2024-01-27T05:17:47;1.90;;;1.10;;
3359;SDS011;1693;49.602;11.046;2024-01-27T05:20:14;1.70;;;1.07;;
3359;SDS011;1693;49.602;11.046;2024-01-27T05:22:41;4.63;;;2.07;;
3359;SDS011;1693;49.602;11.046;2024-01-27T05:25:09;2.90;;;1.33;;
3359;SDS011;1693;49.602;11.046;2024-01-27T05:27:36;2.47;;;1.93;;
3359;SDS011;1693;49.602;11.046;2024-01-27T05:30:04;5.10;;;1.40;;
3359;SDS011;1693;49.602;11.046;2024-01-27T05:32:32;2.40;;;1.70;;
3359;SDS011;1693;49.602;11.046;2024-01-27T05:35:01;1.20;;;0.90;;
3359;SDS011;1693;49.602;11.046;2024-01-27T05:37:30;1.97;;;1.33;;
3359;SDS011;1693;49.602;11.046;2024-01-27T05:39:58;1.90;;;1.40;;
3359;SDS011;1693;49.602;11.046;2024-01-27T05:42:25;2.03;;;1.47;;
3359;SDS011;1693;49.602;11.046;2024-01-27T05:44:52;1.50;;;1.33;;
3359;SDS011;1693;49.602;11.046;2024-01-27T05:47:19;2.03;;;1.33;;
3359;SDS011;1693;49.602;11.046;2024-01-27T05:49:47;1.63;;;1.50;;
3359;SDS011;1693;49.602;11.046;2024-01-27T05:52:15;2.27;;;1.73;;
3359;SDS011;1693;49.602;11.046;2024-01-27T05:54:43;4.70;;;1.40;;
3359;SDS011;1693;49.602;11.046;2024-01-27T05:57:10;3.30;;;1.80;;
3359;SDS011;1693;49.602;11.046;2024-01-27T05:59:37;1.90;;;1.43;;
3359;SDS011;1693;49.602;11.046;2024-01-27T06:02:05;3.10;;;1.20;;
3359;SDS011;1693;49.602;11.046;2024-01-27T06:04:32;3.40;;;1.67;;
3359;SDS011;1693;49.602;11.046;2024-01-27T06:06:59;2.60;;;1.63;;
3359;SDS011;1693;49.602;11.046;2024-01-27T06:09:28;1.50;;;1.20;;
3359;SDS011;1693;49.602;11.046;2024-01-27T06:11:57;1.93;;;1.50;;
3359;SDS011;1693;49.602;11.046;2024-01-27T06:14:25;3.67;;;1.67;;
3359;SDS011;1693;49.602;11.046;2024-01-27T06:16:52;1.63;;;1.53;;
3359;SDS011;1693;49.602;11.046;2024-01-27T06:19:19;1.43;;;1.20;;
3359;SDS011;1693;49.602;11.046;2024-01-27T06:21:47;6.77;;;2.40;;
3359;SDS011;1693;49.602;11.046;2024-01-27T06:24:14;2.70;;;1.60;;
3359;SDS011;1693;49.602;11.046;2024-01-27T06:26:42;2.57;;;1.27;;
3359;SDS011;1693;49.602;11.046;2024-01-27T06:29:10;2.23;;;1.47;;
3359;SDS011;1693;49.602;11.046;2024-01-27T06:31:39;1.97;;;1.27;;
3359;SDS011;1693;49.602;11.046;2024-01-27T06:34:06;6.83;;;1.90;;
3359;SDS011;1693;49.602;11.046;2024-01-27T06:36:33;2.40;;;1.70;;
3359;SDS011;1693;49.602;11.046;2024-01-27T06:39:01;1.70;;;1.30;;
3359;SDS011;1693;49.602;11.046;2024-01-27T06:41:28;1.40;;;1.20;;
3359;SDS011;1693;49.602;11.046;2024-01-27T06:43:57;1.90;;;1.20;;
3359;SDS011;1693;49.602;11.046;2024-01-27T06:46:24;1.80;;;1.37;;
3359;SDS011;1693;49.602;11.046;2024-01-27T06:48:51;2.80;;;1.77;;
3359;SDS011;1693;49.602;11.046;2024-01-27T06:51:18;4.20;;;2.33;;
3359;SDS011;1693;49.602;11.046;2024-01-27T06:53:46;1.70;;;0.93;;
3359;SDS011;1693;49.602;11.046;2024-01-27T06:56:13;2.10;;;1.50;;
3359;SDS011;1693;49.602;11.046;2024-01-27T06:58:41;2.80;;;2.07;;
3359;SDS011;1693;49.602;11.046;2024-01-27T07:01:09;2.80;;;2.23;;
3359;SDS011;1693;49.602;11.046;2024-01-27T07:03:37;3.37;;;1.97;;
3359;SDS011;1693;49.602;11.046;2024-01-27T07:06:06;2.17;;;1.57;;
3359;SDS011;1693;49.602;11.046;2024-01-27T07:08:33;2.80;;;1.97;;
3359;SDS011;1693;49.602;11.046;2024-01-27T07:11:00;2.70;;;1.90;;
3359;SDS011;1693;49.602;11.046;2024-01-27T07:13:28;2.47;;;2.00;;
3359;SDS011;1693;49.602;11.046;2024-01-27T07:15:55;2.53;;;1.63;;
3359;SDS011;1693;49.602;11.046;2024-01-27T07:18:25;2.60;;;2.20;;
3359;SDS011;1693;49.602;11.046;2024-01-27T07:20:52;2.57;;;2.00;;
3359;SDS011;1693;49.602;11.046;2024-01-27T07:23:20;2.43;;;1.73;;
3359;SDS011;1693;49.602;11.046;2024-01-27T07:25:47;6.23;;;3.23;;
3359;SDS011;1693;49.602;11.046;2024-01-27T07:28:15;4.83;;;2.53;;
3359;SDS011;1693;49.602;11.046;2024-01-27T07:30:43;3.63;;;1.83;;
3359;SDS011;1693;49.602;11.046;2024-01-27T07:33:11;3.77;;;2.27;;
3359;SDS011;1693;49.602;11.046;2024-01-27T07:35:41;5.90;;;2.47;;
3359;SDS011;1693;49.602;11.046;2024-01-27T07:38:08;4.20;;;2.47;;
3359;SDS011;1693;49.602;11.046;2024-01-27T07:40:35;5.57;;;2.97;;
3359;SDS011;1693;49.602;11.046;2024-01-27T07:43:03;3.07;;;2.23;;
3359;SDS011;1693;49.602;11.046;2024-01-27T07:45:30;4.23;;;2.53;;
3359;SDS011;1693;49.602;11.046;2024-01-27T07:47:58;4.73;;;3.27;;
3359;SDS011;1693;49.602;11.046;2024-01-27T07:50:25;4.90;;;3.90;;
3359;SDS011;1693;49.602;11.046;2024-01-27T07:52:54;4.10;;;2.73;;
3359;SDS011;1693;49.602;11.046;2024-01-27T07:55:21;4.67;;;3.50;;
3359;SDS011;1693;49.602;11.046;2024-01-27T07:57:49;4.63;;;2.60;;
3359;SDS011;1693;49.602;11.046;2024-01-27T08:00:16;5.63;;;3.50;;
3359;SDS011;1693;49.602;11.046;2024-01-27T08:02:45;3.53;;;2.50;;
3359;SDS011;1693;49.602;11.046;2024-01-27T08:05:16;3.10;;;2.53;;
3359;SDS011;1693;49.602;11.046;2024-01-27T08:07:43;4.70;;;2.60;;
3359;SDS011;1693;49.602;11.046;2024-01-27T08:10:11;7.43;;;2.80;;
3359;SDS011;1693;49.602;11.046;2024-01-27T08:12:38;5.27;;;2.33;;
3359;SDS011;1693;49.602;11.046;2024-01-27T08:15:05;8.50;;;3.83;;
3359;SDS011;1693;49.602;11.046;2024-01-27T08:17:33;6.93;;;5.03;;
3359;SDS011;1693;49.602;11.046;2024-01-27T08:20:00;5.67;;;4.40;;
3359;SDS011;1693;49.602;11.046;2024-01-27T08:22:27;11.40;;;5.80;;
3359;SDS011;1693;49.602;11.046;2024-01-27T08:24:54;8.10;;;5.70;;
3359;SDS011;1693;49.602;11.046;2024-01-27T08:27:23;3.87;;;2.23;;
3359;SDS011;1693;49.602;11.046;2024-01-27T08:29:49;3.43;;;2.73;;
3359;SDS011;1693;49.602;11.046;2024-01-27T08:32:16;4.50;;;2.93;;
3359;SDS011;1693;49.602;11.046;2024-01-27T08:34:43;4.27;;;3.03;;
3359;SDS011;1693;49.602;11.046;2024-01-27T08:37:14;14.80;;;3.77;;
3359;SDS011;1693;49.602;11.046;2024-01-27T08:39:42;3.67;;;2.40;;
3359;SDS011;1693;49.602;11.046;2024-01-27T08:42:09;3.07;;;2.77;;
3359;SDS011;1693;49.602;11.046;2024-01-27T08:44:38;5.53;;;2.97;;
3359;SDS011;1693;49.602;11.046;2024-01-27T08:47:05;3.07;;;2.23;;
3359;SDS011;1693;49.602;11.046;2024-01-27T08:49:32;5.37;;;3.03;;
3359;SDS011;1693;49.602;11.046;2024-01-27T08:51:59;3.90;;;3.30;;
3359;SDS011;1693;49.602;11.046;2024-01-27T08:54:26;6.80;;;3.53;;
3359;SDS011;1693;49.602;11.046;2024-01-27T08:56:53;6.93;;;3.30;;
3359;SDS011;1693;49.602;11.046;2024-01-27T08:59:20;2.93;;;2.20;;
3359;SDS011;1693;49.602;11.046;2024-01-27T09:01:49;5.70;;;2.97;;
3359;SDS011;1693;49.602;11.046;2024-01-27T09:04:17;6.10;;;3.10;;
3359;SDS011;1693;49.602;11.046;2024-01-27T09:06:46;5.13;;;3.27;;
3359;SDS011;1693;49.602;11.046;2024-01-27T09:09:14;4.87;;;2.80;;
3359;SDS011;1693;49.602;11.046;2024-01-27T09:11:42;3.73;;;2.80;;
3359;SDS011;1693;49.602;11.046;2024-01-27T09:14:11;5.47;;;3.30;;
3359;SDS011;1693;49.602;11.046;2024-01-27T09:16:39;3.97;;;3.13;;
3359;SDS011;1693;49.602;11.046;2024-01-27T09:19:08;4.37;;;3.17;;
3359;SDS011;1693;49.602;11.046;2024-01-27T09:21:35;7.53;;;2.97;;
3359;SDS011;1693;49.602;11.046;2024-01-27T09:24:03;6.00;;;4.00;;
3359;SDS011;1693;49.602;11.046;2024-01-27T09:26:31;5.00;;;2.73;;
3359;SDS011;1693;49.602;11.046;2024-01-27T09:28:58;3.17;;;2.43;;
3359;SDS011;1693;49.602;11.046;2024-01-27T09:31:26;3.00;;;2.70;;
3359;SDS011;1693;49.602;11.046;2024-01-27T09:33:53;3.60;;;2.60;;
3359;SDS011;1693;49.602;11.046;2024-01-27T09:36:22;5.50;;;3.03;;
3359;SDS011;1693;49.602;11.046;2024-01-27T09:38:49;5.53;;;3.23;;
3359;SDS011;1693;49.602;11.046;2024-01-27T09:41:17;7.80;;;3.70;;
3359;SDS011;1693;49.602;11.046;2024-01-27T09:43:45;3.30;;;1.97;;
3359;SDS011;1693;49.602;11.046;2024-01-27T09:46:13;2.10;;;1.43;;
3359;SDS011;1693;49.602;11.046;2024-01-27T09:48:40;3.37;;;1.83;;
3359;SDS011;1693;49.602;11.046;2024-01-27T09:51:08;5.20;;;1.80;;
3359;SDS011;1693;49.602;11.046;2024-01-27T09:53:37;5.70;;;2.70;;
3359;SDS011;1693;49.602;11.046;2024-01-27T09:56:05;2.23;;;1.67;;
3359;SDS011;1693;49.602;11.046;2024-01-27T09:58:33;4.40;;;2.00;;
3359;SDS011;1693;49.602;11.046;2024-01-27T10:01:02;2.27;;;1.30;;
3359;SDS011;1693;49.602;11.046;2024-01-27T10:03:30;3.93;;;2.30;;
3359;SDS011;1693;49.602;11.046;2024-01-27T10:05:58;3.97;;;2.20;;
3359;SDS011;1693;49.602;11.046;2024-01-27T10:08:26;1.67;;;1.47;;
3359;SDS011;1693;49.602;11.046;2024-01-27T10:10:55;1.50;;;1.40;;
3359;SDS011;1693;49.602;11.046;2024-01-27T10:13:23;1.63;;;1.10;;
3359;SDS011;1693;49.602;11.046;2024-01-27T10:16:01;1.10;;;0.80;;
3359;SDS011;1693;49.602;11.046;2024-01-27T10:18:29;2.13;;;1.13;;
3359;SDS011;1693;49.602;11.046;2024-01-27T10:20:56;4.30;;;1.40;;
3359;SDS011;1693;49.602;11.046;2024-01-27T10:23:24;2.17;;;1.87;;
3359;SDS011;1693;49.602;11.046;2024-01-27T10:25:51;2.23;;;1.23;;
3359;SDS011;1693;49.602;11.046;2024-01-27T10:28:20;2.13;;;1.23;;
3359;SDS011;1693;49.602;11.046;2024-01-27T10:30:48;1.93;;;1.00;;
3359;SDS011;1693;49.602;11.046;2024-01-27T10:33:15;1.90;;;1.17;;
3359;SDS011;1693;49.602;11.046;2024-01-27T10:35:42;2.40;;;1.33;;
3359;SDS011;1693;49.602;11.046;2024-01-27T10:38:10;1.00;;;0.67;;
3359;SDS011;1693;49.602;11.046;2024-01-27T10:40:37;5.40;;;1.23;;
3359;SDS011;1693;49.602;11.046;2024-01-27T10:43:04;1.20;;;1.07;;
3359;SDS011;1693;49.602;11.046;2024-01-27T10:45:35;1.53;;;1.43;;
3359;SDS011;1693;49.602;11.046;2024-01-27T10:48:04;3.53;;;1.60;;
3359;SDS011;1693;49.602;11.046;2024-01-27T10:50:32;3.47;;;1.53;;
3359;SDS011;1693;49.602;11.046;2024-01-27T10:53:03;1.10;;;1.00;;
3359;SDS011;1693;49.602;11.046;2024-01-27T10:55:31;4.03;;;1.63;;
3359;SDS011;1693;49.602;11.046;2024-01-27T10:58:00;3.93;;;1.03;;
3359;SDS011;1693;49.602;11.046;2024-01-27T11:00:28;1.63;;;1.30;;
3359;SDS011;1693;49.602;11.046;2024-01-27T11:02:59;3.73;;;1.43;;
3359;SDS011;1693;49.602;11.046;2024-01-27T11:05:29;1.70;;;1.20;;
3359;SDS011;1693;49.602;11.046;2024-01-27T11:08:02;1.50;;;1.40;;
3359;SDS011;1693;49.602;11.046;2024-01-27T11:10:29;3.53;;;1.20;;
3359;SDS011;1693;49.602;11.046;2024-01-27T11:13:01;2.83;;;1.40;;
3359;SDS011;1693;49.602;11.046;2024-01-27T11:15:29;1.43;;;1.20;;
3359;SDS011;1693;49.602;11.046;2024-01-27T11:17:58;1.77;;;1.00;;
3359;SDS011;1693;49.602;11.046;2024-01-27T11:20:27;1.17;;;0.87;;
3359;SDS011;1693;49.602;11.046;2024-01-27T11:23:07;1.90;;;1.20;;
3359;SDS011;1693;49.602;11.046;2024-01-27T11:25:35;1.57;;;0.87;;
3359;SDS011;1693;49.602;11.046;2024-01-27T11:28:10;10.07;;;1.10;;
3359;SDS011;1693;49.602;11.046;2024-01-27T11:30:38;2.67;;;1.43;;
3359;SDS011;1693;49.602;11.046;2024-01-27T11:33:06;1.43;;;0.93;;
3359;SDS011;1693;49.602;11.046;2024-01-27T11:35:33;2.90;;;1.97;;
3359;SDS011;1693;49.602;11.046;2024-01-27T11:38:00;1.10;;;0.80;;
3359;SDS011;1693;49.602;11.046;2024-01-27T11:40:27;5.20;;;1.10;;
3359;SDS011;1693;49.602;11.046;2024-01-27T11:42:55;1.50;;;1.10;;
3359;SDS011;1693;49.602;11.046;2024-01-27T11:45:22;8.10;;;1.50;;
3359;SDS011;1693;49.602;11.046;2024-01-27T11:47:50;1.93;;;1.20;;
3359;SDS011;1693;49.602;11.046;2024-01-27T11:50:20;1.83;;;1.63;;
3359;SDS011;1693;49.602;11.046;2024-01-27T11:52:50;1.50;;;0.90;;
3359;SDS011;1693;49.602;11.046;2024-01-27T11:55:16;1.70;;;0.93;;
3359;SDS011;1693;49.602;11.046;2024-01-27T11:57:44;1.23;;;0.90;;
3359;SDS011;1693;49.602;11.046;2024-01-27T12:00:12;1.27;;;0.90;;
3359;SDS011;1693;49.602;11.046;2024-01-27T12:02:39;6.30;;;1.37;;
3359;SDS011;1693;49.602;11.046;2024-01-27T12:05:06;1.10;;;0.97;;
3359;SDS011;1693;49.602;11.046;2024-01-27T12:07:34;1.77;;;1.10;;
3359;SDS011;1693;49.602;11.046;2024-01-27T12:10:02;1.70;;;1.00;;
3359;SDS011;1693;49.602;11.046;2024-01-27T12:12:30;1.87;;;1.77;;
3359;SDS011;1693;49.602;11.046;2024-01-27T12:14:57;5.30;;;1.60;;
3359;SDS011;1693;49.602;11.046;2024-01-27T12:17:27;7.17;;;1.73;;
3359;SDS011;1693;49.602;11.046;2024-01-27T12:19:54;2.03;;;1.20;;
3359;SDS011;1693;49.602;11.046;2024-01-27T12:22:22;3.63;;;2.00;;
3359;SDS011;1693;49.602;11.046;2024-01-27T12:24:52;2.03;;;1.00;;
3359;SDS011;1693;49.602;11.046;2024-01-27T12:27:21;1.63;;;1.10;;
3359;SDS011;1693;49.602;11.046;2024-01-27T12:29:48;1.50;;;1.10;;
3359;SDS011;1693;49.602;11.046;2024-01-27T12:32:15;1.13;;;1.03;;
3359;SDS011;1693;49.602;11.046;2024-01-27T12:34:43;3.50;;;1.10;;
3359;SDS011;1693;49.602;11.046;2024-01-27T12:37:12;6.17;;;1.50;;
3359;SDS011;1693;49.602;11.046;2024-01-27T12:39:41;2.27;;;1.33;;
3359;SDS011;1693;49.602;11.046;2024-01-27T12:42:09;4.17;;;1.50;;
3359;SDS011;1693;49.602;11.046;2024-01-27T12:44:36;3.20;;;1.40;;
3359;SDS011;1693;49.602;11.046;2024-01-27T12:47:03;1.87;;;1.07;;
3359;SDS011;1693;49.602;11.046;2024-01-27T12:49:30;1.50;;;0.93;;
3359;SDS011;1693;49.602;11.046;2024-01-27T12:51:57;2.23;;;1.40;;
3359;SDS011;1693;49.602;11.046;2024-01-27T12:54:24;4.70;;;1.70;;
3359;SDS011;1693;49.602;11.046;2024-01-27T12:56:51;1.33;;;0.93;;
3359;SDS011;1693;49.602;11.046;2024-01-27T12:59:19;2.43;;;1.13;;
3359;SDS011;1693;49.602;11.046;2024-01-27T13:01:46;2.43;;;1.50;;
3359;SDS011;1693;49.602;11.046;2024-01-27T13:04:13;8.80;;;1.47;;
3359;SDS011;1693;49.602;11.046;2024-01-27T13:06:40;4.60;;;1.23;;
3359;SDS011;1693;49.602;11.046;2024-01-27T13:09:07;2.70;;;1.17;;
3359;SDS011;1693;49.602;11.046;2024-01-27T13:11:37;1.30;;;1.07;;
3359;SDS011;1693;49.602;11.046;2024-01-27T13:14:05;1.40;;;1.07;;
3359;SDS011;1693;49.602;11.046;2024-01-27T13:16:35;8.40;;;1.20;;
3359;SDS011;1693;49.602;11.046;2024-01-27T13:19:03;4.10;;;1.10;;
3359;SDS011;1693;49.602;11.046;2024-01-27T13:21:30;1.53;;;1.17;;
3359;SDS011;1693;49.602;11.046;2024-01-27T13:23:57;1.40;;;0.90;;
3359;SDS011;1693;49.602;11.046;2024-01-27T13:26:24;1.30;;;0.90;;
3359;SDS011;1693;49.602;11.046;2024-01-27T13:28:51;2.33;;;1.00;;
3359;SDS011;1693;49.602;11.046;2024-01-27T13:31:18;1.43;;;1.20;;
3359;SDS011;1693;49.602;11.046;2024-01-27T13:33:46;2.60;;;1.37;;
3359;SDS011;1693;49.602;11.046;2024-01-27T13:36:13;3.00;;;1.30;;
3359;SDS011;1693;49.602;11.046;2024-01-27T13:38:40;5.00;;;1.50;;
3359;SDS011;1693;49.602;11.046;2024-01-27T13:41:07;1.00;;;0.70;;
3359;SDS011;1693;49.602;11.046;2024-01-27T13:43:34;2.93;;;1.40;;
3359;SDS011;1693;49.602;11.046;2024-01-27T13:46:01;1.30;;;1.10;;
3359;SDS011;1693;49.602;11.046;2024-01-27T13:48:29;1.00;;;0.80;;
3359;SDS011;1693;49.602;11.046;2024-01-27T13:50:57;1.67;;;1.03;;
3359;SDS011;1693;49.602;11.046;2024-01-27T13:53:24;1.30;;;0.93;;
3359;SDS011;1693;49.602;11.046;2024-01-27T13:55:51;3.53;;;1.23;;
3359;SDS011;1693;49.602;11.046;2024-01-27T13:58:19;3.20;;;1.80;;
3359;SDS011;1693;49.602;11.046;2024-01-27T14:00:46;1.70;;;0.90;;
3359;SDS011;1693;49.602;11.046;2024-01-27T14:03:13;1.63;;;1.37;;
3359;SDS011;1693;49.602;11.046;2024-01-27T14:05:40;1.10;;;0.70;;
3359;SDS011;1693;49.602;11.046;2024-01-27T14:08:09;1.10;;;0.90;;
3359;SDS011;1693;49.602;11.046;2024-01-27T14:10:36;1.00;;;0.70;;
3359;SDS011;1693;49.602;11.046;2024-01-27T14:13:04;1.23;;;1.00;;
3359;SDS011;1693;49.602;11.046;2024-01-27T14:15:34;4.80;;;1.23;;
3359;SDS011;1693;49.602;11.046;2024-01-27T14:18:01;1.50;;;1.13;;
3359;SDS011;1693;49.602;11.046;2024-01-27T14:20:29;1.60;;;0.80;;
3359;SDS011;1693;49.602;11.046;2024-01-27T14:22:57;1.40;;;0.93;;
3359;SDS011;1693;49.602;11.046;2024-01-27T14:25:26;1.50;;;0.90;;
3359;SDS011;1693;49.602;11.046;2024-01-27T14:27:54;1.10;;;0.90;;
3359;SDS011;1693;49.602;11.046;2024-01-27T14:30:21;1.20;;;0.90;;
3359;SDS011;1693;49.602;11.046;2024-01-27T14:32:49;1.00;;;0.70;;
3359;SDS011;1693;49.602;11.046;2024-01-27T14:35:16;1.00;;;0.70;;
3359;SDS011;1693;49.602;11.046;2024-01-27T14:37:43;3.40;;;1.30;;
3359;SDS011;1693;49.602;11.046;2024-01-27T14:40:11;1.10;;;0.90;;
3359;SDS011;1693;49.602;11.046;2024-01-27T14:42:41;1.60;;;1.03;;
3359;SDS011;1693;49.602;11.046;2024-01-27T14:45:10;5.00;;;1.63;;
3359;SDS011;1693;49.602;11.046;2024-01-27T14:47:37;1.20;;;0.90;;
3359;SDS011;1693;49.602;11.046;2024-01-27T14:50:04;1.77;;;1.57;;
3359;SDS011;1693;49.602;11.046;2024-01-27T14:52:32;3.20;;;1.40;;
3359;SDS011;1693;49.602;11.046;2024-01-27T14:54:59;5.47;;;1.73;;
3359;SDS011;1693;49.602;11.046;2024-01-27T14:57:26;5.17;;;1.27;;
3359;SDS011;1693;49.602;11.046;2024-01-27T14:59:54;3.27;;;1.17;;
3359;SDS011;1693;49.602;11.046;2024-01-27T15:02:21;1.30;;;0.90;;